CheckWX is a tool to help pilots better visualize weather data.  It is not intended as a substitute for an official pre-flight weather briefing.

04:41:43 UTC

KMDW TAF
Chicago Midway International Airport
Chicago, Illinois, USA
KMDW 230302Z 2303/2406 04007KT P6SM FEW250 FM231500 05012KT P6SM SCT050 FM240200 04007KT P6SM SKC

Aug-23@
03:00 UTC

Aug-23 @ 03:00 UTC

Aug-23@
15:00 UTC

Aug-23 @ 15:00 UTC

KMDW 230302Z 2303/2406 04007KT P6SM FEW250
Wind
  • 040° at 7 KTS
Cloud Levels
  • Few at 25,000' AGL

Aug-23@
15:00 UTC

Aug-23 @ 15:00 UTC

Aug-24@
02:00 UTC

Aug-24 @ 02:00 UTC

FM231500 05012KT P6SM SCT050

From

From Standard forecast or significant change

Wind
  • 050° at 12 KTS
Cloud Levels
  • Scattered at 5,000' AGL

Aug-24@
02:00 UTC

Aug-24 @ 02:00 UTC

Aug-24@
06:00 UTC

Aug-24 @ 06:00 UTC

FM240200 04007KT P6SM SKC

From

From Standard forecast or significant change

Wind
  • 040° at 7 KTS
Cloud Levels
  • Clear skies